Time;durP1;ratioP1;P1;durP2;ratioP2;P2;SDS_P1;SDS_P2;PMS_P1;PMS_P2;Temp;Humidity;BMP_temperature;BMP_pressure;BME280_temperature;BME280_humidity;BME280_pressure;Samples;Min_cycle;Max_cycle;Signal;HPM_P1;HPM_P2
2023/06/16 00:01:41;;;;;;;1.88;1.50;;;;;;;16.32;72.56;99366.22;5033603;28;20088;-62
2023/06/16 00:04:10;;;;;;;2.30;1.45;;;;;;;16.32;72.38;99363.63;5033247;28;20053;-62
2023/06/16 00:06:42;;;;;;;4.28;1.20;;;;;;;16.30;72.87;99355.13;5033738;28;20049;-62
2023/06/16 00:09:13;;;;;;;0.50;0.50;;;;;;;16.33;72.80;99357.59;5033547;28;20037;-62
2023/06/16 00:11:42;;;;;;;1.30;1.20;;;;;;;16.30;73.26;99353.38;5033330;28;20056;-62
2023/06/16 00:14:11;;;;;;;3.50;1.87;;;;;;;16.31;73.25;99352.50;5048593;28;20049;-62
2023/06/16 00:16:43;;;;;;;2.85;2.05;;;;;;;16.29;73.43;99356.03;5033521;28;20119;-62
2023/06/16 00:19:12;;;;;;;1.33;1.15;;;;;;;16.30;73.63;99357.69;5033403;28;20045;-62
2023/06/16 00:21:43;;;;;;;1.70;1.57;;;;;;;16.21;73.65;99355.38;5033153;28;20046;-62
2023/06/16 00:24:12;;;;;;;1.30;1.15;;;;;;;16.18;73.90;99340.88;5033455;28;20414;-62
2023/06/16 00:26:41;;;;;;;1.80;1.63;;;;;;;16.15;73.44;99353.00;5033090;28;20133;-62
2023/06/16 00:29:10;;;;;;;2.53;0.95;;;;;;;16.07;73.92;99348.91;5033368;28;20041;-62
2023/06/16 00:31:40;;;;;;;3.20;1.33;;;;;;;16.08;74.14;99342.84;5048376;28;20104;-62
2023/06/16 00:34:09;;;;;;;1.83;1.25;;;;;;;16.12;73.95;99342.78;5033146;28;20447;-62
2023/06/16 00:36:38;;;;;;;1.27;1.17;;;;;;;16.01;73.95;99341.34;5048287;28;20057;-62
2023/06/16 00:39:09;;;;;;;2.33;2.13;;;;;;;15.97;74.65;99349.19;5033535;28;20076;-62
2023/06/16 00:41:39;;;;;;;1.50;1.35;;;;;;;15.99;74.45;99342.28;5035713;28;20073;-62
2023/06/16 00:44:07;;;;;;;1.25;1.15;;;;;;;16.01;73.72;99336.19;5052124;28;20395;-62
2023/06/16 00:46:37;;;;;;;1.25;1.05;;;;;;;16.01;73.63;99343.91;5035362;28;20053;-62
2023/06/16 00:49:07;;;;;;;4.05;2.55;;;;;;;16.05;73.32;99340.38;5037398;28;20033;-62
2023/06/16 00:51:36;;;;;;;1.50;1.40;;;;;;;16.06;73.38;99348.94;5035591;28;20396;-62
2023/06/16 00:54:06;;;;;;;1.00;0.95;;;;;;;16.05;73.39;99342.13;5035346;28;20629;-62
2023/06/16 00:56:38;;;;;;;1.42;1.33;;;;;;;15.92;73.79;99339.03;5035154;28;20049;-62
2023/06/16 00:59:08;;;;;;;1.77;1.25;;;;;;;15.74;73.90;99324.09;5037351;28;20475;-62
2023/06/16 01:01:39;;;;;;;3.47;1.30;;;;;;;15.70;74.70;99330.22;5036405;28;20061;-62
2023/06/16 01:04:09;;;;;;;2.60;1.95;;;;;;;15.65;75.09;99321.75;5036277;28;20125;-62
2023/06/16 01:06:57;;;;;;;1.48;1.15;;;;;;;15.68;75.04;99326.84;5036461;28;20049;-62
2023/06/16 01:09:35;;;;;;;1.85;1.40;;;;;;;15.62;74.88;99319.28;5036104;28;20509;-63
2023/06/16 01:12:18;;;;;;;0.98;0.85;;;;;;;15.63;74.92;99323.53;5036351;28;20128;-63
2023/06/16 01:14:57;;;;;;;2.53;1.48;;;;;;;15.67;75.54;99325.13;5051328;28;20052;-61
2023/06/16 01:17:30;;;;;;;3.60;1.10;;;;;;;15.65;74.89;99301.19;5035164;28;20064;-62
2023/06/16 01:20:09;;;;;;;1.73;1.27;;;;;;;15.71;75.33;99316.47;5052139;28;20042;-62
2023/06/16 01:22:56;;;;;;;1.83;1.35;;;;;;;15.58;75.39;99315.09;5034695;28;20104;-62
2023/06/16 01:25:30;;;;;;;1.77;1.63;;;;;;;15.56;75.62;99311.72;5036021;28;20491;-61
2023/06/16 01:28:03;;;;;;;1.83;1.20;;;;;;;15.61;75.47;99312.44;5035815;28;20068;-61
2023/06/16 01:30:34;;;;;;;1.83;1.27;;;;;;;15.58;75.26;99309.97;5035819;28;20041;-62
2023/06/16 01:33:04;;;;;;;0.95;0.82;;;;;;;15.57;75.21;99308.28;5051018;28;20103;-61
2023/06/16 01:35:35;;;;;;;4.88;2.33;;;;;;;15.57;74.88;99310.00;5035441;28;20060;-62
2023/06/16 01:38:04;;;;;;;1.08;0.98;;;;;;;15.48;75.04;99298.22;5035600;28;20041;-63
2023/06/16 01:40:35;;;;;;;0.68;0.68;;;;;;;15.51;75.14;99303.28;5035518;28;20561;-62
2023/06/16 01:43:05;;;;;;;1.70;1.60;;;;;;;15.54;74.85;99305.78;5035474;28;20054;-61
2023/06/16 01:45:36;;;;;;;1.80;1.10;;;;;;;15.27;75.20;99271.31;5050856;28;20045;-62
2023/06/16 01:48:06;;;;;;;0.90;0.77;;;;;;;15.38;75.06;99283.88;5035351;28;20057;-62
2023/06/16 01:50:36;;;;;;;1.33;1.15;;;;;;;15.44;74.72;99304.31;5034493;28;20045;-62
2023/06/16 01:53:05;;;;;;;1.45;1.35;;;;;;;15.40;75.12;99310.41;5050558;28;20064;-62
2023/06/16 01:55:35;;;;;;;0.60;0.60;;;;;;;15.29;75.50;99307.25;5035335;28;20045;-62
2023/06/16 01:58:05;;;;;;;3.53;2.00;;;;;;;15.30;75.56;99314.09;5050624;28;20049;-62
2023/06/16 02:00:38;;;;;;;1.38;1.27;;;;;;;15.26;75.33;99304.78;5035731;28;20435;-62
2023/06/16 02:03:13;;;;;;;0.73;0.73;;;;;;;15.26;75.63;99308.19;5035169;28;20041;-62
2023/06/16 02:05:45;;;;;;;1.10;1.00;;;;;;;15.18;75.80;99304.13;5034469;28;20478;-62
2023/06/16 02:08:17;;;;;;;2.28;1.88;;;;;;;15.13;75.77;99305.97;5051126;28;20463;-62
2023/06/16 02:10:49;;;;;;;2.40;1.52;;;;;;;15.14;76.08;99303.34;5035783;28;20056;-62
2023/06/16 02:13:19;;;;;;;3.60;1.95;;;;;;;15.14;75.84;99298.22;5034859;28;20045;-62
2023/06/16 02:15:47;;;;;;;;;;;;;;;15.21;76.22;99298.94;5035330;28;20049;-62
2023/06/16 02:18:24;;;;;;;2.42;1.42;;;;;;;15.16;75.94;99295.63;5033959;28;19921;-62
2023/06/16 02:20:54;;;;;;;1.15;1.08;;;;;;;15.14;76.17;99294.81;5050463;28;20049;-62
2023/06/16 02:23:23;;;;;;;;;;;;;;;15.22;75.94;99295.44;5035452;28;20088;-62
2023/06/16 02:25:54;;;;;;;1.37;1.27;;;;;;;15.17;75.83;99297.28;5033506;28;19921;-62
2023/06/16 02:28:23;;;;;;;3.65;2.67;;;;;;;15.18;75.77;99299.00;5034621;28;20476;-62
2023/06/16 02:30:52;;;;;;;1.70;1.60;;;;;;;15.15;75.92;99304.19;5033494;28;20053;-62
2023/06/16 02:33:21;;;;;;;3.88;2.60;;;;;;;15.13;75.63;99311.13;5049957;28;20045;-62
2023/06/16 02:35:50;;;;;;;4.35;2.08;;;;;;;15.09;75.55;99314.66;5049701;28;20124;-62
2023/06/16 02:38:19;;;;;;;1.57;1.20;;;;;;;15.13;75.18;99308.53;5034374;28;20053;-62
2023/06/16 02:40:48;;;;;;;1.80;1.70;;;;;;;15.08;75.30;99292.38;5034329;28;20060;-62
2023/06/16 02:43:19;;;;;;;2.10;1.40;;;;;;;15.06;75.32;99302.72;5049808;28;20072;-62
2023/06/16 02:45:49;;;;;;;1.85;1.63;;;;;;;15.03;75.53;99304.50;5034364;28;20120;-62
2023/06/16 02:48:18;;;;;;;1.45;1.35;;;;;;;14.98;75.78;99306.34;5034690;28;20415;-62
2023/06/16 02:50:47;;;;;;;1.42;1.33;;;;;;;14.97;75.85;99314.94;5049656;28;20084;-62
2023/06/16 02:53:19;;;;;;;2.35;1.98;;;;;;;14.97;75.54;99314.94;5049527;28;20100;-62
2023/06/16 02:55:48;;;;;;;3.90;2.33;;;;;;;14.91;75.67;99294.53;5049802;28;20365;-62
2023/06/16 02:58:21;;;;;;;2.08;1.77;;;;;;;14.93;75.77;99311.59;5034093;28;20061;-62
2023/06/16 03:00:50;;;;;;;2.88;1.85;;;;;;;14.89;76.39;99302.28;5034053;28;20124;-62
2023/06/16 03:03:35;;;;;;;1.80;1.38;;;;;;;14.75;76.38;99279.50;5033890;28;20121;-62
2023/06/16 03:06:22;;;;;;;2.45;2.25;;;;;;;14.89;75.98;99315.13;5033884;28;20049;-62
2023/06/16 03:08:51;;;;;;;2.33;1.70;;;;;;;14.88;75.87;99310.00;5049238;28;20049;-62
2023/06/16 03:11:21;;;;;;;3.38;1.67;;;;;;;14.89;76.20;99316.84;5034079;28;20095;-62
2023/06/16 03:13:57;;;;;;;1.38;1.10;;;;;;;14.87;76.75;99318.63;5033820;28;20454;-62
2023/06/16 03:16:28;;;;;;;1.77;1.58;;;;;;;14.92;76.86;99319.34;5034091;28;20049;-62
2023/06/16 03:19:01;;;;;;;3.45;2.25;;;;;;;14.96;76.29;99314.09;5034234;28;20438;-62
2023/06/16 03:21:31;;;;;;;2.72;1.80;;;;;;;15.00;76.22;99312.28;5032607;28;20041;-62
2023/06/16 03:24:00;;;;;;;0.90;0.63;;;;;;;15.00;75.97;99302.84;5032770;28;20521;-62
2023/06/16 03:26:31;;;;;;;1.77;1.55;;;;;;;15.08;76.37;99318.09;5049074;28;20054;-62
2023/06/16 03:29:13;;;;;;;1.60;1.35;;;;;;;15.06;76.70;99322.44;5033685;28;20045;-62
2023/06/16 03:31:43;;;;;;;2.20;1.35;;;;;;;15.06;76.55;99320.72;5033683;28;20050;-62
2023/06/16 03:34:16;;;;;;;1.98;1.58;;;;;;;15.10;77.09;99319.75;5033492;28;20495;-62
2023/06/16 03:36:57;;;;;;;6.70;2.25;;;;;;;15.14;76.91;99305.09;5033625;28;20053;-62
2023/06/16 03:39:34;;;;;;;1.33;1.08;;;;;;;15.18;76.44;99314.41;5033796;28;20111;-62
2023/06/16 03:42:04;;;;;;;1.52;1.23;;;;;;;15.19;75.60;99310.94;5033322;28;20048;-62
2023/06/16 03:44:34;;;;;;;2.72;2.05;;;;;;;15.26;75.54;99318.47;5032294;28;20060;-62
2023/06/16 03:47:05;;;;;;;0.95;0.80;;;;;;;15.28;75.43;99323.59;5049081;28;20049;-62
2023/06/16 03:49:35;;;;;;;1.73;1.63;;;;;;;15.36;75.13;99329.38;5033493;28;20404;-62
2023/06/16 03:52:04;;;;;;;2.80;1.90;;;;;;;15.45;75.25;99324.03;5049084;28;20438;-62
2023/06/16 03:54:33;;;;;;;1.80;1.42;;;;;;;15.45;74.95;99324.03;5048670;28;20100;-62
2023/06/16 03:57:05;;;;;;;3.20;1.02;;;;;;;15.46;75.12;99324.84;5048675;28;20049;-62
2023/06/16 03:59:36;;;;;;;0.73;0.73;;;;;;;15.47;74.98;99332.56;5032388;28;20073;-62
2023/06/16 04:02:07;;;;;;;1.50;1.40;;;;;;;15.49;74.35;99335.94;5033546;28;20068;-62
2023/06/16 04:04:45;;;;;;;3.42;2.53;;;;;;;15.51;74.39;99323.88;5033631;28;20426;-62
2023/06/16 04:07:17;;;;;;;1.30;1.20;;;;;;;15.56;74.13;99329.72;5033589;28;20045;-62
2023/06/16 04:09:49;;;;;;;1.95;1.45;;;;;;;15.58;73.84;99329.69;5032377;28;20482;-62
2023/06/16 04:12:19;;;;;;;1.45;1.20;;;;;;;15.62;73.70;99328.75;5033482;28;20122;-62
2023/06/16 04:14:51;;;;;;;2.60;1.33;;;;;;;15.63;73.48;99326.13;5034899;28;20534;-62
2023/06/16 04:17:20;;;;;;;2.58;2.38;;;;;;;15.69;72.94;99328.50;5037384;28;20132;-62
2023/06/16 04:19:50;;;;;;;;;;;;;;;15.75;73.01;99327.50;5053158;28;20068;-62
2023/06/16 04:22:20;;;;;;;10.57;1.67;;;;;;;15.76;73.06;99330.06;5052871;28;20282;-62
2023/06/16 04:24:53;;;;;;;1.17;1.00;;;;;;;15.65;72.55;99296.03;5037316;28;20454;-63
2023/06/16 04:27:24;;;;;;;1.10;0.95;;;;;;;15.90;72.49;99330.50;5036575;28;20383;-62
2023/06/16 04:29:57;;;;;;;2.25;1.73;;;;;;;15.97;72.24;99324.31;5052298;28;20128;-62
2023/06/16 04:32:28;;;;;;;1.90;1.52;;;;;;;16.02;71.76;99312.16;5035596;28;20141;-62
2023/06/16 04:34:58;;;;;;;1.65;1.55;;;;;;;16.22;71.93;99319.28;5051988;28;20069;-62
2023/06/16 04:37:27;;;;;;;2.58;1.70;;;;;;;16.39;71.73;99323.94;5052462;28;20073;-62
2023/06/16 04:39:56;;;;;;;1.65;1.55;;;;;;;16.52;70.94;99322.72;5052358;28;20045;-62
2023/06/16 04:42:25;;;;;;;1.75;1.58;;;;;;;16.66;70.66;99315.41;5052283;28;20049;-62
2023/06/16 04:44:54;;;;;;;2.40;1.33;;;;;;;16.74;70.34;99316.00;5052071;28;20049;-62
2023/06/16 04:47:27;;;;;;;2.10;1.90;;;;;;;16.71;70.53;99318.69;5052195;28;20049;-62
2023/06/16 04:49:55;;;;;;;2.00;1.77;;;;;;;16.77;70.45;99314.16;5036463;28;20049;-62
2023/06/16 04:52:26;;;;;;;1.48;1.38;;;;;;;16.94;70.16;99310.22;5036451;28;20072;-62
2023/06/16 04:54:55;;;;;;;1.95;1.77;;;;;;;17.05;70.12;99303.81;5051856;28;20132;-62
2023/06/16 04:57:24;;;;;;;2.33;1.45;;;;;;;17.12;69.86;99309.63;5036332;28;20099;-62
2023/06/16 04:59:52;;;;;;;2.87;1.97;;;;;;;17.11;69.53;99313.06;5036553;28;20053;-62
2023/06/16 05:02:21;;;;;;;5.13;2.30;;;;;;;17.19;69.49;99309.38;5036503;28;20341;-62
2023/06/16 05:04:52;;;;;;;6.50;1.95;;;;;;;17.42;69.40;99316.31;5051826;28;20045;-62
2023/06/16 05:07:21;;;;;;;1.55;1.25;;;;;;;17.47;68.94;99323.91;5036227;28;20132;-62
2023/06/16 05:09:50;;;;;;;5.30;2.00;;;;;;;17.42;69.02;99319.75;5051477;28;20069;-62
2023/06/16 05:12:18;;;;;;;2.30;2.10;;;;;;;17.54;69.08;99321.06;5036373;28;20407;-62
2023/06/16 05:14:47;;;;;;;2.40;1.73;;;;;;;17.74;68.97;99315.22;5035959;28;20072;-63
2023/06/16 05:17:17;;;;;;;5.82;2.42;;;;;;;17.70;68.85;99308.50;5035980;28;20050;-62
2023/06/16 05:19:46;;;;;;;1.83;1.67;;;;;;;17.76;68.68;99303.94;5051638;28;20533;-62
2023/06/16 05:22:23;;;;;;;1.48;1.38;;;;;;;17.93;68.61;99308.50;5035117;28;20041;-62
2023/06/16 05:24:57;;;;;;;3.58;1.85;;;;;;;18.04;68.57;99314.13;5035724;28;20053;-63
2023/06/16 05:27:26;;;;;;;2.40;1.60;;;;;;;18.11;68.56;99310.44;5051258;28;20053;-62
2023/06/16 05:29:56;;;;;;;3.45;2.53;;;;;;;18.20;68.36;99315.25;5036471;28;20514;-62
2023/06/16 05:32:32;;;;;;;9.18;3.10;;;;;;;18.40;68.31;99312.75;5036056;28;20112;-62
2023/06/16 05:35:02;;;;;;;2.05;1.45;;;;;;;18.42;68.32;99310.97;5035408;28;20053;-62
2023/06/16 05:37:32;;;;;;;;;;;;;;;18.46;68.27;99312.53;5034881;28;20038;-62
2023/06/16 05:40:03;;;;;;;2.75;1.98;;;;;;;18.56;68.38;99318.19;5035530;28;20406;-62
2023/06/16 05:42:34;;;;;;;3.47;2.17;;;;;;;18.61;68.24;99317.13;5035635;28;20099;-62
2023/06/16 05:45:04;;;;;;;1.60;1.27;;;;;;;18.66;68.31;99309.19;5033454;28;20052;-63
2023/06/16 05:47:33;;;;;;;2.60;1.63;;;;;;;18.90;67.97;99317.72;5050243;28;20052;-62
2023/06/16 05:50:02;;;;;;;3.88;2.97;;;;;;;19.08;67.84;99301.44;5035002;28;20057;-62
2023/06/16 05:52:34;;;;;;;2.15;1.70;;;;;;;19.28;67.14;99312.66;5050939;28;20125;-62
2023/06/16 05:55:04;;;;;;;1.35;1.25;;;;;;;19.41;66.65;99314.75;5034241;28;20518;-62
2023/06/16 05:57:40;;;;;;;1.75;1.45;;;;;;;19.52;66.25;99310.81;5035451;28;20372;-63
2023/06/16 06:00:11;;;;;;;1.48;1.23;;;;;;;19.57;65.75;99313.19;5034087;28;20046;-62
2023/06/16 06:02:45;;;;;;;2.10;1.63;;;;;;;19.58;65.14;99302.75;5034305;28;20076;-62
2023/06/16 06:05:26;;;;;;;2.92;1.33;;;;;;;19.65;64.77;99304.16;5033303;28;20391;-62
2023/06/16 06:07:57;;;;;;;;;;;;;;;19.83;64.78;99312.88;5018708;28;20045;-63
2023/06/16 06:10:26;;;;;;;1.70;1.38;;;;;;;20.01;64.27;99312.91;5050351;28;19921;-63
2023/06/16 06:12:57;;;;;;;5.13;2.10;;;;;;;20.10;63.97;99316.00;5035530;28;20045;-63
2023/06/16 06:15:28;;;;;;;3.38;1.45;;;;;;;20.27;63.65;99318.72;5033976;28;20129;-63
2023/06/16 06:18:03;;;;;;;1.65;1.55;;;;;;;20.45;63.27;99312.66;5034078;28;20053;-62
2023/06/16 06:20:34;;;;;;;1.48;1.27;;;;;;;20.41;62.62;99311.13;5033585;28;20499;-63
2023/06/16 06:23:05;;;;;;;1.58;1.45;;;;;;;20.32;62.50;99321.94;5034167;28;20072;-63
2023/06/16 06:25:34;;;;;;;2.13;0.90;;;;;;;20.26;62.20;99317.00;5048931;28;20041;-64
2023/06/16 06:28:02;;;;;;;1.77;1.50;;;;;;;20.27;62.10;99319.56;5050532;28;20557;-63
2023/06/16 06:30:31;;;;;;;1.53;1.27;;;;;;;20.39;61.95;99321.59;5050027;28;20049;-63
2023/06/16 06:33:01;;;;;;;2.30;1.45;;;;;;;20.55;61.43;99319.09;5034029;28;20116;-63
2023/06/16 06:35:30;;;;;;;;;;;;;;;20.65;61.14;99320.34;5033747;28;20068;-62
2023/06/16 06:38:00;;;;;;;3.35;1.88;;;;;;;20.78;61.21;99326.63;5032848;28;19931;-62
2023/06/16 06:40:31;;;;;;;3.15;1.70;;;;;;;20.99;60.75;99325.63;5034241;28;20080;-63
2023/06/16 06:43:03;;;;;;;1.33;1.02;;;;;;;21.21;60.24;99321.06;5049316;28;20124;-63
2023/06/16 06:45:52;;;;;;;1.40;1.30;;;;;;;21.42;59.87;99318.31;5033515;28;20130;-63
2023/06/16 06:48:22;;;;;;;0.80;0.80;;;;;;;21.47;59.38;99313.72;5033007;28;20503;-63
2023/06/16 06:50:57;;;;;;;2.13;1.15;;;;;;;21.56;59.04;99314.09;5034230;28;20424;-63
2023/06/16 06:53:26;;;;;;;1.35;1.20;;;;;;;21.71;58.77;99309.88;5033527;28;20514;-63
2023/06/16 06:55:56;;;;;;;1.77;1.65;;;;;;;21.80;58.27;99304.19;5033987;28;20053;-63
2023/06/16 06:58:25;;;;;;;2.00;1.77;;;;;;;21.90;58.10;99308.88;5033998;28;20060;-63
2023/06/16 07:00:54;;;;;;;2.28;1.05;;;;;;;21.89;58.12;99308.94;5033192;28;20056;-64
2023/06/16 07:03:22;;;;;;;1.87;1.70;;;;;;;21.78;58.49;99306.88;5034205;28;20103;-63
2023/06/16 07:05:51;;;;;;;1.20;1.10;;;;;;;21.75;58.60;99311.38;5033722;28;20052;-63
2023/06/16 07:08:20;;;;;;;2.92;1.27;;;;;;;21.92;58.80;99311.38;5035105;28;20470;-63
2023/06/16 07:10:49;;;;;;;3.10;2.60;;;;;;;22.09;58.42;99311.34;5033099;28;20514;-63
2023/06/16 07:13:19;;;;;;;4.15;2.28;;;;;;;22.29;57.60;99313.69;5032994;28;20132;-63
2023/06/16 07:15:48;;;;;;;6.07;1.90;;;;;;;22.36;56.38;99320.22;5033776;28;20049;-63
2023/06/16 07:18:17;;;;;;;5.30;1.30;;;;;;;22.50;55.16;99322.94;5033906;28;20096;-63
2023/06/16 07:20:46;;;;;;;0.95;0.88;;;;;;;22.57;54.01;99313.03;5033052;28;20526;-64
2023/06/16 07:23:15;;;;;;;1.17;1.03;;;;;;;22.57;53.83;99308.66;5013939;28;20056;-63
2023/06/16 07:25:44;;;;;;;2.58;1.90;;;;;;;22.63;53.63;99303.13;5014213;28;20041;-63
2023/06/16 07:28:13;;;;;;;2.15;1.45;;;;;;;22.71;53.27;99304.47;5023583;28;20037;-63
2023/06/16 07:30:43;;;;;;;1.00;0.90;;;;;;;22.75;53.20;99306.00;5032843;28;20054;-63
2023/06/16 07:33:12;;;;;;;1.73;1.40;;;;;;;22.95;53.50;99308.28;5033683;28;20487;-63
2023/06/16 07:35:41;;;;;;;1.73;1.27;;;;;;;23.13;53.17;99294.22;5033393;28;20068;-63
2023/06/16 07:38:10;;;;;;;1.38;1.20;;;;;;;23.14;52.16;99298.50;5032236;28;20164;-63
2023/06/16 07:40:39;;;;;;;0.95;0.88;;;;;;;23.24;51.91;99300.50;5013798;28;20148;-64
2023/06/16 07:43:08;;;;;;;2.05;1.88;;;;;;;23.41;51.79;99303.91;5014689;28;20046;-64
2023/06/16 07:45:38;;;;;;;1.25;1.13;;;;;;;23.53;51.35;99304.00;5033313;28;20046;-64
2023/06/16 07:48:09;;;;;;;6.15;1.48;;;;;;;23.57;51.09;99292.47;5033840;28;20440;-63
2023/06/16 07:50:39;;;;;;;1.38;1.27;;;;;;;23.61;50.90;99296.56;5034409;28;20069;-63
2023/06/16 07:53:08;;;;;;;1.95;1.83;;;;;;;23.78;51.17;99285.97;5036525;28;20049;-63
2023/06/16 07:55:37;;;;;;;1.10;0.80;;;;;;;23.81;50.73;99298.81;5030338;28;20487;-63
2023/06/16 07:58:06;;;;;;;;;;;;;;;23.78;50.47;99298.16;5035933;28;20052;-64
2023/06/16 08:00:35;;;;;;;1.27;1.02;;;;;;;23.80;50.44;99291.91;5033712;28;19943;-63
2023/06/16 08:03:04;;;;;;;0.85;0.70;;;;;;;23.86;50.53;99294.16;5049477;28;20069;-63
2023/06/16 08:05:34;;;;;;;1.45;0.95;;;;;;;23.91;50.14;99296.47;5036813;28;20045;-64
2023/06/16 08:08:03;;;;;;;2.08;1.65;;;;;;;23.94;49.58;99286.72;5037504;28;20507;-64
2023/06/16 08:10:32;;;;;;;1.42;1.00;;;;;;;23.91;49.40;99292.13;5036189;28;20545;-62
2023/06/16 08:13:01;;;;;;;2.22;1.25;;;;;;;23.96;49.50;99300.50;5035570;28;20053;-64
2023/06/16 08:15:30;;;;;;;1.23;0.90;;;;;;;23.92;49.32;99291.16;5037506;28;20041;-63
2023/06/16 08:17:59;;;;;;;2.00;1.48;;;;;;;24.06;49.20;99297.31;5036930;28;20038;-63
2023/06/16 08:20:29;;;;;;;1.95;1.65;;;;;;;24.19;48.96;99286.03;5051552;28;20042;-64
2023/06/16 08:22:59;;;;;;;0.88;0.82;;;;;;;24.29;48.30;99296.75;5036958;28;20124;-64
2023/06/16 08:25:28;;;;;;;1.38;1.27;;;;;;;24.40;48.04;99302.13;5037314;28;20049;-63
2023/06/16 08:27:57;;;;;;;1.48;1.08;;;;;;;24.52;47.49;99293.53;5036859;28;20068;-64
2023/06/16 08:30:26;;;;;;;2.97;1.58;;;;;;;24.47;47.60;99293.00;5036257;28;20402;-63
2023/06/16 08:32:55;;;;;;;1.58;1.08;;;;;;;24.52;47.66;99289.13;5036842;28;20049;-64
2023/06/16 08:35:24;;;;;;;;;;;;;;;24.54;47.15;99289.91;5037022;28;20050;-63
2023/06/16 08:37:53;;;;;;;2.00;1.80;;;;;;;24.43;47.43;99281.03;5036987;28;20363;-64
2023/06/16 08:40:25;;;;;;;1.17;0.88;;;;;;;24.38;46.75;99291.78;5036229;28;20295;-64
2023/06/16 08:42:56;;;;;;;4.97;1.45;;;;;;;24.15;46.27;99268.91;5036655;28;20077;-65
2023/06/16 08:45:26;;;;;;;1.70;1.52;;;;;;;24.28;46.75;99289.88;5037187;28;20489;-63
2023/06/16 08:47:56;;;;;;;1.05;0.95;;;;;;;24.32;47.04;99286.97;5036840;28;20041;-64
2023/06/16 08:50:25;;;;;;;1.13;1.00;;;;;;;24.30;47.28;99282.78;5035724;28;20056;-63
2023/06/16 08:52:57;;;;;;;1.42;1.05;;;;;;;24.36;46.85;99282.38;5036960;28;20395;-64
2023/06/16 08:55:29;;;;;;;0.95;0.77;;;;;;;24.33;47.26;99280.78;5036313;28;20049;-63
2023/06/16 08:58:00;;;;;;;1.92;1.33;;;;;;;24.46;47.73;99284.31;5036699;28;20064;-63
2023/06/16 09:00:32;;;;;;;1.33;1.23;;;;;;;24.42;46.99;99282.00;5034376;28;20045;-64
2023/06/16 09:03:05;;;;;;;1.60;1.38;;;;;;;24.45;46.73;99287.03;5036696;28;20056;-63
2023/06/16 09:05:35;;;;;;;1.27;1.05;;;;;;;24.57;46.85;99281.03;5035570;28;20037;-63
2023/06/16 09:08:05;;;;;;;2.42;1.45;;;;;;;24.65;47.06;99283.97;5036034;28;20053;-63
2023/06/16 09:10:35;;;;;;;2.03;1.27;;;;;;;24.75;47.15;99279.81;5035344;28;20056;-63
2023/06/16 09:13:04;;;;;;;3.95;2.50;;;;;;;24.81;46.55;99279.44;5036304;28;20068;-64
2023/06/16 09:15:35;;;;;;;0.55;0.55;;;;;;;24.92;47.09;99278.75;5035012;28;20049;-63
2023/06/16 09:18:07;;;;;;;1.00;0.90;;;;;;;25.07;47.59;99273.38;5036007;28;20041;-63
2023/06/16 09:20:40;;;;;;;0.93;0.88;;;;;;;25.18;47.59;99275.25;5035872;28;20053;-63
2023/06/16 09:23:10;;;;;;;2.15;1.48;;;;;;;25.19;46.47;99275.13;5035918;28;20049;-64
2023/06/16 09:25:40;;;;;;;0.50;0.50;;;;;;;25.27;46.34;99278.09;5035058;28;20080;-63
2023/06/16 09:28:10;;;;;;;1.13;1.02;;;;;;;25.27;45.70;99278.09;5036083;28;20095;-63
2023/06/16 09:30:39;;;;;;;2.20;1.73;;;;;;;25.04;45.79;99273.56;5035853;28;20049;-63
2023/06/16 09:33:12;;;;;;;1.73;1.25;;;;;;;24.89;46.20;99274.56;5035710;28;20103;-64
2023/06/16 09:35:41;;;;;;;2.67;1.73;;;;;;;24.77;46.58;99270.16;5034621;28;20400;-63
2023/06/16 09:38:12;;;;;;;0.80;0.80;;;;;;;24.67;46.65;99271.66;5035737;28;20164;-64
2023/06/16 09:40:42;;;;;;;1.17;0.93;;;;;;;24.66;46.37;99270.00;5035625;28;20054;-63
2023/06/16 09:43:12;;;;;;;2.03;1.35;;;;;;;24.51;46.05;99263.13;5035600;28;20056;-64
2023/06/16 09:45:44;;;;;;;0.75;0.75;;;;;;;24.47;45.78;99269.50;5031858;28;20084;-64
2023/06/16 09:48:13;;;;;;;2.03;1.63;;;;;;;24.42;45.89;99266.34;5034534;28;20049;-63
2023/06/16 09:50:42;;;;;;;1.45;1.23;;;;;;;24.27;45.98;99260.31;5034516;28;20077;-64
2023/06/16 09:53:11;;;;;;;3.47;1.42;;;;;;;24.15;46.87;99265.47;5035582;28;20128;-64
2023/06/16 09:55:44;;;;;;;1.20;0.73;;;;;;;24.13;47.06;99264.72;5034659;28;20055;-64
2023/06/16 09:58:13;;;;;;;1.58;1.48;;;;;;;24.14;47.02;99266.41;5034211;28;20606;-64
2023/06/16 10:00:43;;;;;;;1.08;0.95;;;;;;;24.11;46.94;99266.59;5035453;28;20049;-63
2023/06/16 10:03:13;;;;;;;1.27;1.15;;;;;;;24.07;47.07;99260.72;5035316;28;20491;-64
2023/06/16 10:05:47;;;;;;;1.20;1.10;;;;;;;24.00;48.35;99255.03;5034817;28;20186;-63
2023/06/16 10:08:19;;;;;;;1.10;0.93;;;;;;;24.06;48.43;99263.41;5034566;28;20041;-63
2023/06/16 10:10:53;;;;;;;1.05;0.73;;;;;;;24.07;48.42;99265.94;5035297;28;20136;-63
2023/06/16 10:13:24;;;;;;;1.02;0.93;;;;;;;24.08;48.40;99261.56;5049758;28;20049;-64
2023/06/16 10:15:56;;;;;;;1.00;0.88;;;;;;;24.24;48.23;99264.88;5032215;28;20049;-64
2023/06/16 10:18:26;;;;;;;3.38;1.48;;;;;;;24.39;47.89;99266.53;5033139;28;20049;-63
2023/06/16 10:20:56;;;;;;;2.33;1.13;;;;;;;24.52;47.50;99262.22;5024010;28;20056;-63
2023/06/16 10:23:25;;;;;;;1.48;1.30;;;;;;;24.67;47.86;99267.28;5035009;28;20059;-61
2023/06/16 10:25:56;;;;;;;1.70;1.27;;;;;;;24.87;47.90;99268.63;5033924;28;20049;-64
2023/06/16 10:28:26;;;;;;;0.70;0.70;;;;;;;25.11;47.59;99264.38;5034716;28;20045;-63
2023/06/16 10:30:56;;;;;;;1.10;1.00;;;;;;;25.28;46.25;99258.88;5034585;28;20099;-64
2023/06/16 10:33:26;;;;;;;1.20;0.85;;;;;;;25.36;45.88;99254.91;5034991;28;20080;-64
2023/06/16 10:35:56;;;;;;;0.70;0.70;;;;;;;25.52;46.42;99260.78;5033292;28;20053;-64
2023/06/16 10:38:35;;;;;;;0.95;0.93;;;;;;;25.61;45.72;99260.16;5033330;28;20481;-63
2023/06/16 10:41:07;;;;;;;1.08;0.95;;;;;;;25.62;45.33;99256.59;5034732;28;20103;-63
2023/06/16 10:43:36;;;;;;;0.95;0.80;;;;;;;25.76;45.01;99243.41;5031768;28;20458;-63
2023/06/16 10:46:16;;;;;;;0.80;0.80;;;;;;;25.82;45.19;99242.97;5033315;28;20049;-64
2023/06/16 10:49:11;;;;;;;1.98;0.88;;;;;;;25.85;44.59;99243.59;5034329;28;20053;-64
2023/06/16 10:51:42;;;;;;;1.50;1.35;;;;;;;25.97;43.25;99247.13;5034442;28;20052;-64
2023/06/16 10:54:13;;;;;;;0.98;0.93;;;;;;;25.88;42.94;99221.63;5033269;28;20064;-65
2023/06/16 10:57:03;;;;;;;0.90;0.73;;;;;;;25.96;42.25;99245.47;5034056;28;20041;-65
2023/06/16 10:59:53;;;;;;;1.13;0.80;;;;;;;26.13;41.85;99237.25;5032016;28;20372;-64
2023/06/16 11:02:24;;;;;;;2.38;1.05;;;;;;;26.18;41.44;99229.91;5031340;28;20431;-65
2023/06/16 11:05:11;;;;;;;0.70;0.70;;;;;;;26.33;40.90;99226.22;5034100;28;20045;-64
2023/06/16 11:07:41;;;;;;;0.65;0.65;;;;;;;26.39;40.36;99217.09;5034513;28;20415;-64
2023/06/16 11:10:11;;;;;;;1.45;0.85;;;;;;;26.50;40.01;99228.44;5032988;28;20041;-64
2023/06/16 11:12:42;;;;;;;1.10;1.00;;;;;;;26.66;39.86;99235.19;5033614;28;20444;-64
2023/06/16 11:15:11;;;;;;;1.95;1.45;;;;;;;26.77;39.76;99227.38;5031128;28;20128;-65
2023/06/16 11:17:43;;;;;;;0.40;0.40;;;;;;;26.67;39.77;99226.38;5032725;28;20049;-64
2023/06/16 11:20:13;;;;;;;2.28;1.63;;;;;;;26.90;40.44;99228.16;5033779;28;20191;-63
2023/06/16 11:22:43;;;;;;;0.55;0.55;;;;;;;26.92;38.94;99221.00;5032791;28;20045;-65
2023/06/16 11:25:12;;;;;;;1.85;1.13;;;;;;;26.74;38.19;99224.97;5033862;28;20095;-64
2023/06/16 11:27:43;;;;;;;1.55;1.23;;;;;;;26.82;37.59;99220.88;5031349;28;20402;-64
2023/06/16 11:30:13;;;;;;;0.65;0.65;;;;;;;26.88;37.37;99227.41;5031163;28;20042;-63
2023/06/16 11:32:42;;;;;;;1.13;0.90;;;;;;;26.90;37.52;99220.31;5033675;28;20057;-63
2023/06/16 11:35:12;;;;;;;1.60;0.98;;;;;;;27.17;38.80;99226.06;5033407;28;20107;-63
2023/06/16 11:37:42;;;;;;;0.95;0.73;;;;;;;27.21;36.75;99214.41;5031042;28;20091;-63
2023/06/16 11:40:15;;;;;;;0.70;0.70;;;;;;;27.42;37.66;99220.66;5032589;28;20136;-63
2023/06/16 11:42:53;;;;;;;0.90;0.85;;;;;;;27.51;37.12;99211.25;5031875;28;20128;-63
2023/06/16 11:45:22;;;;;;;0.85;0.73;;;;;;;27.56;36.57;99202.06;5031804;28;20071;-63
2023/06/16 11:47:51;;;;;;;1.50;1.10;;;;;;;27.66;37.06;99202.19;5033458;28;20049;-63
2023/06/16 11:50:22;;;;;;;;;;;;;;;27.69;36.59;99208.00;5034026;28;20038;-64
2023/06/16 11:52:52;;;;;;;3.83;1.00;;;;;;;27.23;35.34;99196.78;5033544;28;20368;-64
2023/06/16 11:55:22;;;;;;;2.38;1.45;;;;;;;26.91;35.04;99204.47;5033061;28;20388;-65